Pagina principale
METAR-TAF:

METAR-TAF

Aeroporti :

Aeroporto di Reykjavík

Reykjavík, Islanda

latitudine: 64-08N, longitudine: 021-54W, altezza: 54 m

Osservazione

Il bollettino è stato emesso 59 minuti fa, alle 06:00 UTC
Vento 13 kt da nord
Temperature 6°C
Umidità 70%
Pressione 1009 hPa
Visibilità 10 km o più
Nubi sparse ad un'altezza di 2700 ft

METAR: BIRK 190600Z 36013KT 9999 SCT027 06/01 Q1009

Ora: 06:59 (06:59 UTC)

Previsione

Il bollettino è stato emesso 2 ore e 52 minuti fa, alle 04:07 UTC
Previsione valida dal 19 alle 06 UTC al 20 alle 06 UTC
Vento 14 kt da nord/nord-est
Visibilità 10 km o più
Poco nuvoloso ad un'altezza di 2500 ft
Nuvoloso ad un'altezza di 3000 ft

TAF: BIRK 190407Z 1906/2006 02014KT 9999 FEW025 BKN030 TX12/1915Z TN06/2006Z

Osservazioni e previsioni meteorologiche di più di 4000 aeroporti (messaggi METAR e TAF).

Le stazioni disponibili sono rappresentate dai dischi gialli e rossi sulla carta.

Puntare il mouse per vedere il nome della stazione.

Clicca sopra per visualizzare le osservazioni e previsioni meteorologiche.

Per cambiare la mappa : fare clic sui pulsanti verdi con una croce nera per ingrandire, il pulsante verde con un trattino per diminuire, o sulla freccia verde per le mappe adiacenti.


METAR-TAF: